createdAt,value
2022-10-11T00:00:29.170Z,3.30
2022-10-11T00:00:59.812Z,3.40
2022-10-11T00:01:30.468Z,3.50
2022-10-11T00:02:01.009Z,3.60
2022-10-11T00:02:31.568Z,3.40
2022-10-11T00:03:02.141Z,3.50
2022-10-11T00:03:32.696Z,3.00
2022-10-11T00:04:03.265Z,3.10
2022-10-11T00:04:33.820Z,3.30
2022-10-11T00:05:04.383Z,3.20
2022-10-11T00:05:34.961Z,3.40
2022-10-11T00:06:06.129Z,3.00
2022-10-11T00:06:36.530Z,3.50
2022-10-11T00:07:07.108Z,3.20
2022-10-11T00:07:37.659Z,3.40
2022-10-11T00:08:08.261Z,3.20
2022-10-11T00:08:38.836Z,3.50
2022-10-11T00:09:09.426Z,3.40
2022-10-11T00:09:39.955Z,4.00
2022-10-11T00:10:10.522Z,3.20
2022-10-11T00:10:41.128Z,3.30
2022-10-11T00:11:11.691Z,3.10
2022-10-11T00:11:42.236Z,3.30
2022-10-11T00:12:12.795Z,3.60
2022-10-11T00:12:43.338Z,3.20
2022-10-11T00:13:13.888Z,3.50
2022-10-11T00:13:44.453Z,3.40
2022-10-11T00:14:15.016Z,3.70
2022-10-11T00:14:45.574Z,3.50
2022-10-11T00:15:16.151Z,3.60
2022-10-11T00:15:46.721Z,3.40
2022-10-11T00:16:17.250Z,3.90
2022-10-11T00:16:48.353Z,3.00
2022-10-11T00:17:18.349Z,3.20
2022-10-11T00:17:48.901Z,3.60
2022-10-11T00:18:19.470Z,3.30
2022-10-11T00:18:50.041Z,3.30
2022-10-11T00:19:20.626Z,3.10
2022-10-11T00:19:51.174Z,3.40
2022-10-11T00:20:21.722Z,3.50
2022-10-11T00:20:52.290Z,3.10
2022-10-11T00:21:22.870Z,3.40
2022-10-11T00:21:53.417Z,3.20
2022-10-11T00:22:23.971Z,3.20
2022-10-11T00:22:54.541Z,3.40
2022-10-11T00:23:25.116Z,3.80
2022-10-11T00:23:55.688Z,3.70
2022-10-11T00:24:26.273Z,3.50
2022-10-11T00:24:56.815Z,3.30
2022-10-11T00:25:27.365Z,3.70
2022-10-11T00:25:57.923Z,3.40
2022-10-11T00:26:28.488Z,3.30
2022-10-11T00:26:59.053Z,3.80
2022-10-11T00:27:29.597Z,3.30
2022-10-11T00:28:00.149Z,3.50
2022-10-11T00:28:30.759Z,3.20
2022-10-11T00:29:01.377Z,2.80
2022-10-11T00:29:31.926Z,3.50
2022-10-11T00:30:02.504Z,3.40
2022-10-11T00:30:33.076Z,3.50
2022-10-11T00:31:03.886Z,3.40
2022-10-11T00:31:35.834Z,3.20
2022-10-11T00:32:05.502Z,3.10
2022-10-11T00:32:36.073Z,3.60
2022-10-11T00:33:06.662Z,3.30
2022-10-11T00:33:37.227Z,3.40
2022-10-11T00:34:08.260Z,3.50
2022-10-11T00:34:38.830Z,3.20
2022-10-11T00:35:09.427Z,3.70
2022-10-11T00:35:39.994Z,3.80
2022-10-11T00:36:10.563Z,3.60
2022-10-11T00:36:41.125Z,3.60
2022-10-11T00:37:11.734Z,3.50
2022-10-11T00:37:42.308Z,3.60
2022-10-11T00:38:12.848Z,3.20
2022-10-11T00:38:43.429Z,3.40
2022-10-11T00:39:14.600Z,3.50
2022-10-11T00:39:44.694Z,3.50
2022-10-11T00:40:15.218Z,3.40
2022-10-11T00:40:45.778Z,3.10
2022-10-11T00:41:16.372Z,3.30
2022-10-11T00:41:46.937Z,3.50
2022-10-11T00:42:17.501Z,3.40
2022-10-11T00:42:48.078Z,3.80
2022-10-11T00:43:18.658Z,3.20
2022-10-11T00:43:49.231Z,3.10
2022-10-11T00:44:19.813Z,3.30
2022-10-11T00:44:50.342Z,3.20
2022-10-11T00:45:20.933Z,3.20
2022-10-11T00:45:51.505Z,3.50
2022-10-11T00:46:22.051Z,3.40
2022-10-11T00:46:55.712Z,3.50
2022-10-11T00:47:23.471Z,3.40
2022-10-11T00:47:54.045Z,3.40
2022-10-11T00:48:24.643Z,2.90
2022-10-11T00:48:55.256Z,3.40
2022-10-11T00:49:25.814Z,3.80
2022-10-11T00:49:56.408Z,3.40
2022-10-11T00:50:27.011Z,3.80
2022-10-11T00:50:57.557Z,3.10
2022-10-11T00:51:28.095Z,3.60
2022-10-11T00:51:58.668Z,3.20
2022-10-11T00:52:29.251Z,3.30
2022-10-11T00:52:59.824Z,3.00
2022-10-11T00:53:30.387Z,3.40
2022-10-11T00:54:00.977Z,3.20
2022-10-11T00:54:31.550Z,3.20
2022-10-11T00:55:02.125Z,3.40
2022-10-11T00:55:32.708Z,3.70
2022-10-11T00:56:03.745Z,3.50
2022-10-11T00:56:34.063Z,3.50
2022-10-11T00:57:04.638Z,3.10
2022-10-11T00:57:35.219Z,3.40
2022-10-11T00:58:05.790Z,3.40
2022-10-11T00:58:36.357Z,3.90
2022-10-11T00:59:06.904Z,3.50
2022-10-11T00:59:37.482Z,3.60
2022-10-11T01:00:08.059Z,3.60
2022-10-11T01:00:38.614Z,3.30
2022-10-11T01:01:09.200Z,3.20
2022-10-11T01:01:39.836Z,3.50
2022-10-11T01:02:10.388Z,3.40
2022-10-11T01:02:40.971Z,3.80
2022-10-11T01:03:11.526Z,3.30
2022-10-11T01:03:42.084Z,3.80
2022-10-11T01:04:12.664Z,3.70
2022-10-11T01:04:43.234Z,3.70
2022-10-11T01:05:30.310Z,3.70
2022-10-11T01:05:44.584Z,3.90
2022-10-11T01:06:15.141Z,3.80
2022-10-11T01:06:45.728Z,3.50
2022-10-11T01:07:16.280Z,3.80
2022-10-11T01:07:46.839Z,3.50
2022-10-11T01:08:17.420Z,3.60
2022-10-11T01:08:47.980Z,3.90
2022-10-11T01:09:18.536Z,3.60
2022-10-11T01:09:49.063Z,3.60
2022-10-11T01:10:19.654Z,3.40
2022-10-11T01:10:50.199Z,4.30
2022-10-11T01:11:20.762Z,3.60
2022-10-11T01:11:51.345Z,3.20
2022-10-11T01:12:21.907Z,3.70
2022-10-11T01:12:52.458Z,3.10
2022-10-11T01:13:23.003Z,3.40
2022-10-11T01:13:53.571Z,3.30
2022-10-11T01:14:24.127Z,3.50
2022-10-11T01:14:54.699Z,4.10
2022-10-11T01:15:25.275Z,3.70
2022-10-11T01:15:55.836Z,3.50
2022-10-11T01:16:26.397Z,3.40
2022-10-11T01:16:56.957Z,3.30
2022-10-11T01:17:27.493Z,4.10
2022-10-11T01:17:58.055Z,3.30
2022-10-11T01:18:28.614Z,3.30
2022-10-11T01:18:59.171Z,3.00
2022-10-11T01:19:29.728Z,3.30
2022-10-11T01:20:00.282Z,3.00
2022-10-11T01:20:30.862Z,3.40
2022-10-11T01:21:01.445Z,3.20
2022-10-11T01:21:32.027Z,3.40
2022-10-11T01:22:02.617Z,3.20
2022-10-11T01:22:33.185Z,3.90
2022-10-11T01:23:03.748Z,3.20
2022-10-11T01:23:34.292Z,3.60
2022-10-11T01:24:08.512Z,3.70
2022-10-11T01:24:35.798Z,3.30
2022-10-11T01:25:06.361Z,2.80
2022-10-11T01:25:36.972Z,3.40
2022-10-11T01:26:08.079Z,3.30
2022-10-11T01:26:38.214Z,3.20
2022-10-11T01:27:08.757Z,3.30
2022-10-11T01:27:39.325Z,3.00
2022-10-11T01:28:10.017Z,3.20
2022-10-11T01:28:40.697Z,3.30
2022-10-11T01:29:11.284Z,2.90
2022-10-11T01:29:41.852Z,3.10
2022-10-11T01:30:12.420Z,2.90
2022-10-11T01:30:43.017Z,3.40
2022-10-11T01:31:13.550Z,3.60
2022-10-11T01:31:44.116Z,3.40
2022-10-11T01:32:14.651Z,3.20
2022-10-11T01:32:45.214Z,3.20
2022-10-11T01:33:15.771Z,3.20
2022-10-11T01:33:46.317Z,3.70
2022-10-11T01:34:16.971Z,3.80
2022-10-11T01:34:47.543Z,3.10
2022-10-11T01:35:18.129Z,3.30
2022-10-11T01:35:48.708Z,3.20
2022-10-11T01:36:19.252Z,3.10
2022-10-11T01:36:49.845Z,3.20
2022-10-11T01:37:20.430Z,3.00
2022-10-11T01:37:51.005Z,3.10
2022-10-11T01:38:21.577Z,3.50
2022-10-11T01:38:52.578Z,3.20
2022-10-11T01:39:23.183Z,3.00
2022-10-11T01:39:53.759Z,2.90
2022-10-11T01:40:24.315Z,3.40
2022-10-11T01:40:54.890Z,3.30
2022-10-11T01:41:25.448Z,3.10
2022-10-11T01:41:56.066Z,3.30
2022-10-11T01:42:26.596Z,3.60
2022-10-11T01:42:57.156Z,3.00
2022-10-11T01:43:27.734Z,3.40
2022-10-11T01:43:58.300Z,3.00
2022-10-11T01:44:28.853Z,3.50
2022-10-11T01:44:59.811Z,3.20
2022-10-11T01:45:30.370Z,3.30
2022-10-11T01:46:01.159Z,3.20
2022-10-11T01:46:31.874Z,3.20
2022-10-11T01:47:02.452Z,3.60
2022-10-11T01:47:33.012Z,3.10
2022-10-11T01:48:03.584Z,3.30
2022-10-11T01:48:34.167Z,3.20
2022-10-11T01:49:04.732Z,3.20
2022-10-11T01:49:35.309Z,3.50
2022-10-11T01:50:05.866Z,3.10
2022-10-11T01:50:36.455Z,3.20
2022-10-11T01:51:07.068Z,3.10
2022-10-11T01:51:37.628Z,3.10
2022-10-11T01:52:08.215Z,3.30
2022-10-11T01:52:38.806Z,2.90
2022-10-11T01:53:09.335Z,2.90
2022-10-11T01:53:39.867Z,3.90
2022-10-11T01:54:10.445Z,3.30
2022-10-11T01:55:07.638Z,4.10
2022-10-11T01:55:11.763Z,3.50
2022-10-11T01:55:42.335Z,3.00
2022-10-11T01:56:12.897Z,3.40
2022-10-11T01:56:43.460Z,3.20
2022-10-11T01:57:14.036Z,3.30
2022-10-11T01:57:44.613Z,3.20
2022-10-11T01:58:15.188Z,3.40
2022-10-11T01:58:45.764Z,2.90
2022-10-11T01:59:16.360Z,3.10
2022-10-11T01:59:46.938Z,3.40
2022-10-11T02:00:17.518Z,3.20
2022-10-11T02:00:48.067Z,3.10
2022-10-11T02:01:18.694Z,2.90
2022-10-11T02:01:49.317Z,2.90
2022-10-11T02:02:19.912Z,2.90
2022-10-11T02:02:50.473Z,3.30
2022-10-11T02:03:21.049Z,3.20
2022-10-11T02:03:51.642Z,3.40
2022-10-11T02:04:22.167Z,2.80
2022-10-11T02:04:52.704Z,3.40
2022-10-11T02:05:23.258Z,2.80
2022-10-11T02:05:53.846Z,2.90
2022-10-11T02:06:24.420Z,3.00
2022-10-11T02:06:54.990Z,3.10
2022-10-11T02:07:25.558Z,2.90
2022-10-11T02:07:56.104Z,2.90
2022-10-11T02:08:26.665Z,2.90
2022-10-11T02:08:57.220Z,3.10
2022-10-11T02:09:27.795Z,2.70
2022-10-11T02:09:58.377Z,3.10
2022-10-11T02:10:28.924Z,3.30
2022-10-11T02:10:59.477Z,2.80
2022-10-11T02:11:30.061Z,3.00
2022-10-11T02:12:00.643Z,2.80
2022-10-11T02:12:31.210Z,3.10
2022-10-11T02:13:01.789Z,3.20
2022-10-11T02:13:32.360Z,3.40
2022-10-11T02:14:02.927Z,3.00
2022-10-11T02:14:33.478Z,2.90
2022-10-11T02:15:04.053Z,2.90
2022-10-11T02:15:34.583Z,3.20
2022-10-11T02:16:05.384Z,3.00
2022-10-11T02:16:36.136Z,2.70
2022-10-11T02:17:06.732Z,3.20
2022-10-11T02:17:37.319Z,3.30
2022-10-11T02:18:07.918Z,3.20
2022-10-11T02:18:38.506Z,3.00
2022-10-11T02:19:09.063Z,2.90
2022-10-11T02:19:39.631Z,2.80
2022-10-11T02:20:10.184Z,3.00
2022-10-11T02:20:40.747Z,3.20
2022-10-11T02:21:11.299Z,2.70
2022-10-11T02:21:41.868Z,3.00
2022-10-11T02:22:12.439Z,2.80
2022-10-11T02:22:42.987Z,3.50
2022-10-11T02:23:13.549Z,2.60
2022-10-11T02:23:44.113Z,2.60
2022-10-11T02:24:14.671Z,2.90
2022-10-11T02:24:45.237Z,2.80
2022-10-11T02:25:15.812Z,2.70
2022-10-11T02:25:46.366Z,2.70
2022-10-11T02:26:16.953Z,3.10
2022-10-11T02:26:47.558Z,3.50
2022-10-11T02:27:18.088Z,3.00
2022-10-11T02:27:48.616Z,2.70
2022-10-11T02:28:19.255Z,3.00
2022-10-11T02:28:49.868Z,3.00
2022-10-11T02:29:20.444Z,2.90
2022-10-11T02:29:51.006Z,2.70
2022-10-11T02:30:21.576Z,2.50
2022-10-11T02:30:52.164Z,3.00
2022-10-11T02:31:22.707Z,2.80
2022-10-11T02:31:53.282Z,3.20
2022-10-11T02:32:23.850Z,2.80
2022-10-11T02:32:54.399Z,3.00
2022-10-11T02:33:24.974Z,2.70
2022-10-11T02:33:55.552Z,2.70
2022-10-11T02:34:26.115Z,2.90
2022-10-11T02:34:56.688Z,3.10
2022-10-11T02:35:27.276Z,2.80
2022-10-11T02:35:57.803Z,2.90
2022-10-11T02:36:28.391Z,2.80
2022-10-11T02:36:58.951Z,2.70
2022-10-11T02:37:29.525Z,2.70
2022-10-11T02:38:00.088Z,3.20
2022-10-11T02:38:30.622Z,2.70
2022-10-11T02:39:01.147Z,2.80
2022-10-11T02:39:31.691Z,2.50
2022-10-11T02:40:02.255Z,2.50
2022-10-11T02:40:32.818Z,3.10
2022-10-11T02:41:03.410Z,2.50
2022-10-11T02:41:33.945Z,2.40
2022-10-11T02:42:04.561Z,2.80
2022-10-11T02:42:35.114Z,2.60
2022-10-11T02:43:05.681Z,2.80
2022-10-11T02:43:36.253Z,3.00
2022-10-11T02:44:06.814Z,2.70
2022-10-11T02:44:37.376Z,2.60
2022-10-11T02:45:07.966Z,2.50
2022-10-11T02:45:38.524Z,3.00
2022-10-11T02:46:09.526Z,2.90
2022-10-11T02:46:39.628Z,2.50
2022-10-11T02:47:10.213Z,2.40
2022-10-11T02:47:40.765Z,2.40
2022-10-11T02:48:11.346Z,2.90
2022-10-11T02:48:41.922Z,2.90
2022-10-11T02:49:12.501Z,2.60
2022-10-11T02:49:43.071Z,2.60
2022-10-11T02:50:13.623Z,2.70
2022-10-11T02:50:44.230Z,2.40
2022-10-11T02:51:14.804Z,2.70
2022-10-11T02:51:45.365Z,2.80
2022-10-11T02:52:15.919Z,2.60
2022-10-11T02:52:46.487Z,2.80
2022-10-11T02:53:17.046Z,2.60
2022-10-11T02:53:47.613Z,3.10
2022-10-11T02:54:18.188Z,2.60
2022-10-11T02:54:48.757Z,2.40
2022-10-11T02:55:19.323Z,2.50
2022-10-11T02:55:49.930Z,2.60
2022-10-11T02:56:20.501Z,2.70
2022-10-11T02:56:51.034Z,2.60
2022-10-11T02:57:21.632Z,2.60
2022-10-11T02:57:52.172Z,2.60
2022-10-11T02:58:22.730Z,2.70
2022-10-11T02:58:53.302Z,2.40
2022-10-11T02:59:23.874Z,2.80
2022-10-11T02:59:54.456Z,2.50
2022-10-11T03:00:25.073Z,2.40
2022-10-11T03:00:55.647Z,2.60
2022-10-11T03:01:26.277Z,2.70
2022-10-11T03:01:56.898Z,2.70
2022-10-11T03:02:27.462Z,3.00
2022-10-11T03:02:58.058Z,3.00
2022-10-11T03:03:28.627Z,2.60
2022-10-11T03:03:59.190Z,2.80
2022-10-11T03:04:29.749Z,2.70
2022-10-11T03:05:00.341Z,2.70
2022-10-11T03:05:30.914Z,2.50
2022-10-11T03:06:01.919Z,2.50
2022-10-11T03:06:32.167Z,2.70
2022-10-11T03:07:02.699Z,2.60
2022-10-11T03:07:33.261Z,2.50
2022-10-11T03:08:03.833Z,2.80
2022-10-11T03:08:34.392Z,2.90
2022-10-11T03:09:04.947Z,2.60
2022-10-11T03:09:35.470Z,2.90
2022-10-11T03:10:06.053Z,2.60
2022-10-11T03:10:36.636Z,2.50
2022-10-11T03:11:07.209Z,2.70
2022-10-11T03:11:37.757Z,2.50
2022-10-11T03:12:08.316Z,2.70
2022-10-11T03:12:38.904Z,2.60
2022-10-11T03:13:09.463Z,2.70
2022-10-11T03:13:40.040Z,2.80
2022-10-11T03:14:10.602Z,2.50
2022-10-11T03:14:41.160Z,2.70
2022-10-11T03:15:11.709Z,2.60
2022-10-11T03:15:42.286Z,2.90
2022-10-11T03:16:13.401Z,2.60
2022-10-11T03:16:43.353Z,2.80
2022-10-11T03:17:35.107Z,2.60
2022-10-11T03:17:44.707Z,2.50
2022-10-11T03:18:15.295Z,2.50
2022-10-11T03:18:45.861Z,2.80
2022-10-11T03:19:19.293Z,2.80
2022-10-11T03:19:47.466Z,2.70
2022-10-11T03:20:18.033Z,2.50
2022-10-11T03:20:48.617Z,2.80
2022-10-11T03:21:19.187Z,3.10
2022-10-11T03:21:50.233Z,2.90
2022-10-11T03:22:20.821Z,2.60
2022-10-11T03:22:51.378Z,2.70
2022-10-11T03:23:21.916Z,2.50
2022-10-11T03:23:52.472Z,2.70
2022-10-11T03:24:23.043Z,2.60
2022-10-11T03:24:53.632Z,2.70
2022-10-11T03:25:24.196Z,2.80
2022-10-11T03:25:54.764Z,2.70
2022-10-11T03:26:25.328Z,2.50
2022-10-11T03:26:55.936Z,2.80
2022-10-11T03:27:26.496Z,2.50
2022-10-11T03:27:57.096Z,2.70
2022-10-11T03:28:27.703Z,2.80
2022-10-11T03:28:58.293Z,2.50
2022-10-11T03:29:28.844Z,2.90
2022-10-11T03:29:59.385Z,2.50
2022-10-11T03:30:29.951Z,2.50
2022-10-11T03:31:00.532Z,2.50
2022-10-11T03:31:31.111Z,3.20
2022-10-11T03:32:01.651Z,2.70
2022-10-11T03:32:32.229Z,2.40
2022-10-11T03:33:02.786Z,3.00
2022-10-11T03:33:33.354Z,3.40
2022-10-11T03:34:03.919Z,3.10
2022-10-11T03:34:34.491Z,3.00
2022-10-11T03:35:05.055Z,2.50
2022-10-11T03:35:35.615Z,2.60
2022-10-11T03:36:06.645Z,2.90
2022-10-11T03:36:37.016Z,2.80
2022-10-11T03:37:07.595Z,3.60
2022-10-11T03:37:38.162Z,3.10
2022-10-11T03:38:12.791Z,3.40
2022-10-11T03:38:39.341Z,2.90
2022-10-11T03:39:09.896Z,2.70
2022-10-11T03:39:40.439Z,3.10
2022-10-11T03:40:10.997Z,2.90
2022-10-11T03:40:41.560Z,2.70
2022-10-11T03:41:12.141Z,2.50
2022-10-11T03:41:42.702Z,2.80
2022-10-11T03:42:13.304Z,2.90
2022-10-11T03:42:43.880Z,2.70
2022-10-11T03:43:14.469Z,3.00
2022-10-11T03:43:45.004Z,3.00
2022-10-11T03:44:15.559Z,3.00
2022-10-11T03:44:46.133Z,2.90
2022-10-11T03:45:16.744Z,2.90
2022-10-11T03:45:47.308Z,2.90
2022-10-11T03:46:17.861Z,2.80
2022-10-11T03:46:48.397Z,2.90
2022-10-11T03:47:19.009Z,2.80
2022-10-11T03:47:49.578Z,2.60
2022-10-11T03:48:20.127Z,2.70
2022-10-11T03:48:50.698Z,2.40
2022-10-11T03:49:21.240Z,2.70
2022-10-11T03:49:51.769Z,2.40
2022-10-11T03:50:22.322Z,2.80
2022-10-11T03:50:52.878Z,2.90
2022-10-11T03:51:23.438Z,2.80
2022-10-11T03:51:54.006Z,2.80
2022-10-11T03:52:24.586Z,3.00
2022-10-11T03:52:55.145Z,2.80
2022-10-11T03:53:25.733Z,2.80
2022-10-11T03:53:56.310Z,3.00
2022-10-11T03:54:26.874Z,2.90
2022-10-11T03:54:57.461Z,2.90
2022-10-11T03:55:28.031Z,3.50
2022-10-11T03:55:58.601Z,2.90
2022-10-11T03:56:29.130Z,2.60
2022-10-11T03:56:59.713Z,3.50
2022-10-11T03:57:30.314Z,2.70
2022-10-11T03:58:00.865Z,2.60
2022-10-11T03:58:31.477Z,2.80
2022-10-11T03:59:02.010Z,2.80
2022-10-11T03:59:32.567Z,2.80
2022-10-11T04:00:03.116Z,3.10
2022-10-11T04:00:33.699Z,2.50
2022-10-11T04:01:04.279Z,2.90
2022-10-11T04:01:34.949Z,3.50
2022-10-11T04:02:05.574Z,2.70
2022-10-11T04:02:39.198Z,2.80
2022-10-11T04:03:06.827Z,3.10
2022-10-11T04:03:37.367Z,2.90
2022-10-11T04:04:07.923Z,3.10
2022-10-11T04:04:38.528Z,3.00
2022-10-11T04:05:09.094Z,2.70
2022-10-11T04:05:39.667Z,2.90
2022-10-11T04:06:10.228Z,3.10
2022-10-11T04:06:40.802Z,2.80
2022-10-11T04:07:11.353Z,3.30
2022-10-11T04:07:41.933Z,2.80
2022-10-11T04:08:12.609Z,3.20
2022-10-11T04:08:43.149Z,3.30
2022-10-11T04:09:13.963Z,2.90
2022-10-11T04:09:44.559Z,2.70
2022-10-11T04:10:15.138Z,3.00
2022-10-11T04:10:45.727Z,2.90
2022-10-11T04:11:16.281Z,3.10
2022-10-11T04:11:46.863Z,3.30
2022-10-11T04:12:17.436Z,3.00
2022-10-11T04:12:47.982Z,3.30
2022-10-11T04:13:18.550Z,3.00
2022-10-11T04:13:49.166Z,3.30
2022-10-11T04:14:19.688Z,3.30
2022-10-11T04:14:50.276Z,3.00
2022-10-11T04:15:20.838Z,3.10
2022-10-11T04:15:51.395Z,2.80
2022-10-11T04:16:21.957Z,2.80
2022-10-11T04:16:52.500Z,2.70
2022-10-11T04:17:23.051Z,2.70
2022-10-11T04:17:53.704Z,2.90
2022-10-11T04:18:24.271Z,3.60
2022-10-11T04:18:54.831Z,2.90
2022-10-11T04:19:25.372Z,3.00
2022-10-11T04:19:55.982Z,3.00
2022-10-11T04:20:26.512Z,2.70
2022-10-11T04:20:57.099Z,2.80
2022-10-11T04:21:27.653Z,3.20
2022-10-11T04:21:58.206Z,3.20
2022-10-11T04:22:28.748Z,3.00
2022-10-11T04:22:59.324Z,2.70
2022-10-11T04:23:29.870Z,2.70
2022-10-11T04:24:00.422Z,3.00
2022-10-11T04:24:31.012Z,3.10
2022-10-11T04:25:01.578Z,3.10
2022-10-11T04:25:32.142Z,2.90
2022-10-11T04:26:03.163Z,3.20
2022-10-11T04:26:33.500Z,2.80
2022-10-11T04:27:04.037Z,2.90
2022-10-11T04:27:34.606Z,2.90
2022-10-11T04:28:05.169Z,2.90
2022-10-11T04:28:35.841Z,2.80
2022-10-11T04:29:06.457Z,2.50
2022-10-11T04:29:36.983Z,2.70
2022-10-11T04:30:07.533Z,3.20
2022-10-11T04:30:38.094Z,2.70
2022-10-11T04:31:08.706Z,2.80
2022-10-11T04:31:39.296Z,3.00
2022-10-11T04:32:09.842Z,2.80
2022-10-11T04:32:40.379Z,2.70
2022-10-11T04:33:10.950Z,2.60
2022-10-11T04:33:41.497Z,2.60
2022-10-11T04:34:12.058Z,2.60
2022-10-11T04:34:42.606Z,2.40
2022-10-11T04:35:13.165Z,3.00
2022-10-11T04:35:43.715Z,2.80
2022-10-11T04:36:14.285Z,2.90
2022-10-11T04:36:49.606Z,2.70
2022-10-11T04:37:15.645Z,2.60
2022-10-11T04:37:46.211Z,2.80
2022-10-11T04:38:16.735Z,2.80
2022-10-11T04:38:47.301Z,2.90
2022-10-11T04:39:17.876Z,3.20
2022-10-11T04:39:48.443Z,3.10
2022-10-11T04:40:19.020Z,3.10
2022-10-11T04:40:49.564Z,3.40
2022-10-11T04:41:20.117Z,3.30
2022-10-11T04:41:50.689Z,4.00
2022-10-11T04:42:21.262Z,5.00
2022-10-11T04:42:51.841Z,10.50
2022-10-11T04:43:22.389Z,11.80
2022-10-11T04:43:52.968Z,11.90
2022-10-11T04:44:23.551Z,14.10
2022-10-11T04:44:54.113Z,13.30
2022-10-11T04:45:24.750Z,11.80
2022-10-11T04:45:55.648Z,11.90
2022-10-11T04:46:26.206Z,12.60
2022-10-11T04:46:56.769Z,15.30
2022-10-11T04:47:30.034Z,15.20
2022-10-11T04:47:57.978Z,15.80
2022-10-11T04:48:28.571Z,14.80
2022-10-11T04:48:59.133Z,15.00
2022-10-11T04:49:29.689Z,15.10
2022-10-11T04:50:00.254Z,14.20
2022-10-11T04:50:30.825Z,13.30
2022-10-11T04:51:01.402Z,14.80
2022-10-11T04:51:31.970Z,13.80
2022-10-11T04:52:02.522Z,14.10
2022-10-11T04:52:33.076Z,13.40
2022-10-11T04:53:03.603Z,13.00
2022-10-11T04:53:34.191Z,13.40
2022-10-11T04:54:04.746Z,15.00
2022-10-11T04:54:35.308Z,14.30
2022-10-11T04:55:05.917Z,14.10
2022-10-11T04:55:36.473Z,14.50
2022-10-11T04:56:07.433Z,15.70
2022-10-11T04:56:37.965Z,13.10
2022-10-11T04:57:08.551Z,12.90
2022-10-11T04:57:39.140Z,12.60
2022-10-11T04:58:09.691Z,13.80
2022-10-11T04:58:40.257Z,12.60
2022-10-11T04:59:10.863Z,12.90
2022-10-11T04:59:41.432Z,12.60
2022-10-11T05:00:11.968Z,12.80
2022-10-11T05:00:42.576Z,13.00
2022-10-11T05:01:13.135Z,13.20
2022-10-11T05:01:43.759Z,11.40
2022-10-11T05:02:14.456Z,12.00
2022-10-11T05:02:45.040Z,12.00
2022-10-11T05:03:15.623Z,11.90
2022-10-11T05:03:46.269Z,11.00
2022-10-11T05:04:16.802Z,11.10
2022-10-11T05:04:47.382Z,10.60
2022-10-11T05:05:17.939Z,10.90
2022-10-11T05:05:48.525Z,11.10
2022-10-11T05:06:20.876Z,10.30
2022-10-11T05:06:50.502Z,11.00
2022-10-11T05:07:20.688Z,10.70
2022-10-11T05:07:51.235Z,11.10
2022-10-11T05:08:21.820Z,10.30
2022-10-11T05:08:52.379Z,10.40
2022-10-11T05:09:22.897Z,8.60
2022-10-11T05:09:53.906Z,8.70
2022-10-11T05:10:24.465Z,8.80
2022-10-11T05:10:54.984Z,7.20
2022-10-11T05:11:26.069Z,7.20
2022-10-11T05:11:56.698Z,6.00
2022-10-11T05:12:27.239Z,6.90
2022-10-11T05:12:57.730Z,7.20
2022-10-11T05:13:29.013Z,7.40
2022-10-11T05:13:59.545Z,7.50
2022-10-11T05:14:30.586Z,6.20
2022-10-11T05:15:01.615Z,6.70
2022-10-11T05:15:32.114Z,6.00
2022-10-11T05:16:05.944Z,6.30
2022-10-11T05:16:33.884Z,5.90
2022-10-11T05:17:04.402Z,5.30
2022-10-11T05:17:35.407Z,5.20
2022-10-11T05:18:06.439Z,5.40
2022-10-11T05:18:37.494Z,6.00
2022-10-11T05:19:08.004Z,5.90
2022-10-11T05:19:38.553Z,5.70
2022-10-11T05:20:09.557Z,5.50
2022-10-11T05:20:40.588Z,6.00
2022-10-11T05:21:11.625Z,5.30
2022-10-11T05:21:42.654Z,6.10
2022-10-11T05:22:13.198Z,5.70
2022-10-11T05:22:43.726Z,6.40
2022-10-11T05:23:14.731Z,6.20
2022-10-11T05:23:45.736Z,5.70
2022-10-11T05:24:16.250Z,5.70
2022-10-11T05:24:47.241Z,5.90
2022-10-11T05:25:18.244Z,5.00
2022-10-11T05:25:49.261Z,5.50
2022-10-11T05:26:19.796Z,5.80
2022-10-11T05:26:50.828Z,5.70
2022-10-11T05:27:21.372Z,6.00
2022-10-11T05:27:51.896Z,5.80
2022-10-11T05:28:22.967Z,5.50
2022-10-11T05:28:53.635Z,5.00
2022-10-11T05:29:24.163Z,5.50
2022-10-11T05:29:55.213Z,5.00
2022-10-11T05:30:26.239Z,5.40
2022-10-11T05:30:56.744Z,5.00
2022-10-11T05:31:27.806Z,5.20
2022-10-11T05:31:58.330Z,4.80
2022-10-11T05:32:29.333Z,4.90
2022-10-11T05:33:00.364Z,4.90
2022-10-11T05:33:30.881Z,5.20
2022-10-11T05:34:01.886Z,5.00
2022-10-11T05:34:32.906Z,5.00
2022-10-11T05:35:03.429Z,4.60
2022-10-11T05:35:34.465Z,5.10
2022-10-11T05:36:05.279Z,5.30
2022-10-11T05:36:36.042Z,4.80
2022-10-11T05:37:07.035Z,5.00
2022-10-11T05:37:38.075Z,4.70
2022-10-11T05:38:08.592Z,4.40
2022-10-11T05:38:39.629Z,4.90
2022-10-11T05:39:10.648Z,4.80
2022-10-11T05:39:41.683Z,4.70
2022-10-11T05:40:12.717Z,4.50
2022-10-11T05:40:43.237Z,5.10
2022-10-11T05:41:14.256Z,4.60
2022-10-11T05:41:45.315Z,4.10
2022-10-11T05:42:16.318Z,4.50
2022-10-11T05:42:47.369Z,4.90
2022-10-11T05:43:17.884Z,4.30
2022-10-11T05:43:48.897Z,4.80
2022-10-11T05:44:19.902Z,4.50
2022-10-11T05:44:50.931Z,4.20
2022-10-11T05:45:21.457Z,4.40
2022-10-11T05:45:52.514Z,4.60
2022-10-11T05:46:23.527Z,3.80
2022-10-11T05:46:54.097Z,4.50
2022-10-11T05:47:24.580Z,4.00
2022-10-11T05:47:55.605Z,3.70
2022-10-11T05:48:26.650Z,4.50
2022-10-11T05:48:57.175Z,4.00
2022-10-11T05:49:28.173Z,5.20
2022-10-11T05:49:59.276Z,4.30
2022-10-11T05:50:29.802Z,4.10
2022-10-11T05:51:00.802Z,4.40
2022-10-11T05:51:31.838Z,4.10
2022-10-11T05:52:02.381Z,3.70
2022-10-11T05:52:32.913Z,4.10
2022-10-11T05:53:03.441Z,3.90
2022-10-11T05:53:34.492Z,3.70
2022-10-11T05:54:04.983Z,3.70
2022-10-11T05:54:36.006Z,4.20
2022-10-11T05:55:07.001Z,3.90
2022-10-11T05:55:38.023Z,3.90
2022-10-11T05:56:08.840Z,4.00
2022-10-11T05:56:39.407Z,3.60
2022-10-11T05:57:10.447Z,3.60
2022-10-11T05:57:41.461Z,4.20
2022-10-11T05:58:12.482Z,3.50
2022-10-11T05:58:43.520Z,4.00
2022-10-11T05:59:14.026Z,3.90
2022-10-11T05:59:45.044Z,3.60
2022-10-11T06:00:16.064Z,3.70
2022-10-11T06:00:47.094Z,3.80
2022-10-11T06:01:18.172Z,3.60
2022-10-11T06:01:48.753Z,3.70
2022-10-11T06:02:19.297Z,3.80
2022-10-11T06:02:50.306Z,3.70
2022-10-11T06:03:21.334Z,3.60
2022-10-11T06:03:52.404Z,4.00
2022-10-11T06:04:22.918Z,3.80
2022-10-11T06:04:53.455Z,4.00
2022-10-11T06:05:23.964Z,3.50
2022-10-11T06:05:57.209Z,3.60
2022-10-11T06:06:25.829Z,3.60
2022-10-11T06:06:56.859Z,3.50
2022-10-11T06:07:27.869Z,3.70
2022-10-11T06:07:58.889Z,3.80
2022-10-11T06:08:29.900Z,3.30
2022-10-11T06:09:00.464Z,3.70
2022-10-11T06:09:30.960Z,3.30
2022-10-11T06:10:01.980Z,3.50
2022-10-11T06:10:33.005Z,3.90
2022-10-11T06:11:03.522Z,3.60
2022-10-11T06:11:34.050Z,3.30
2022-10-11T06:12:05.061Z,3.40
2022-10-11T06:12:36.098Z,3.80
2022-10-11T06:13:06.604Z,3.90
2022-10-11T06:13:37.626Z,3.70
2022-10-11T06:14:08.147Z,3.60
2022-10-11T06:14:38.672Z,4.10
2022-10-11T06:15:09.714Z,4.00
2022-10-11T06:15:40.711Z,3.60
2022-10-11T06:16:11.237Z,3.50
2022-10-11T06:16:42.289Z,3.80
2022-10-11T06:17:13.301Z,3.80
2022-10-11T06:17:43.840Z,4.00
2022-10-11T06:18:14.854Z,3.90
2022-10-11T06:18:45.884Z,3.80
2022-10-11T06:19:16.401Z,3.60
2022-10-11T06:19:47.404Z,3.30
2022-10-11T06:20:18.455Z,3.60
2022-10-11T06:20:49.964Z,3.60
2022-10-11T06:21:19.960Z,3.10
2022-10-11T06:21:50.999Z,3.30
2022-10-11T06:22:21.515Z,3.90
2022-10-11T06:22:52.057Z,3.50
2022-10-11T06:23:22.567Z,3.40
2022-10-11T06:23:58.270Z,3.30
2022-10-11T06:24:24.315Z,3.40
2022-10-11T06:24:55.306Z,3.50
2022-10-11T06:25:26.328Z,3.40
2022-10-11T06:25:56.829Z,3.40
2022-10-11T06:26:27.366Z,3.70
2022-10-11T06:26:58.408Z,3.70
2022-10-11T06:27:29.428Z,3.20
2022-10-11T06:28:00.431Z,3.20
2022-10-11T06:28:31.582Z,3.20
2022-10-11T06:29:02.194Z,3.20
2022-10-11T06:29:32.707Z,3.30
2022-10-11T06:30:03.226Z,3.00
2022-10-11T06:30:34.253Z,3.10
2022-10-11T06:31:05.281Z,3.20
2022-10-11T06:31:36.342Z,3.40
2022-10-11T06:32:07.368Z,3.20
2022-10-11T06:32:37.883Z,3.10
2022-10-11T06:33:08.916Z,2.90
2022-10-11T06:33:39.918Z,3.30
2022-10-11T06:34:10.456Z,2.90
2022-10-11T06:34:41.491Z,3.20
2022-10-11T06:35:12.530Z,3.40
2022-10-11T06:35:43.529Z,3.40
2022-10-11T06:36:14.534Z,3.40
2022-10-11T06:36:45.571Z,3.10
2022-10-11T06:37:16.081Z,3.30
2022-10-11T06:37:46.614Z,3.50
2022-10-11T06:38:17.616Z,3.60
2022-10-11T06:38:48.131Z,3.50
2022-10-11T06:39:19.164Z,3.60
2022-10-11T06:39:49.797Z,2.80
2022-10-11T06:40:20.810Z,3.20
2022-10-11T06:40:51.320Z,3.10
2022-10-11T06:41:22.375Z,3.10
2022-10-11T06:41:52.896Z,3.30
2022-10-11T06:42:23.892Z,3.50
2022-10-11T06:42:54.916Z,2.80
2022-10-11T06:43:25.457Z,3.30
2022-10-11T06:43:56.467Z,3.00
2022-10-11T06:44:27.490Z,2.90
2022-10-11T06:44:58.511Z,3.40
2022-10-11T06:45:29.571Z,3.20
2022-10-11T06:46:00.099Z,3.10
2022-10-11T06:46:31.105Z,2.70
2022-10-11T06:47:01.626Z,3.20